sensor_id;sensor_type;location;lat;lon;timestamp;P1;durP1;ratioP1;P2;durP2;ratioP2
20411;SDS011;10365;52.578;8.138;2023-02-02T00:00:28;16.42;;;2.90;;
20411;SDS011;10365;52.578;8.138;2023-02-02T00:02:53;15.38;;;1.88;;
20411;SDS011;10365;52.578;8.138;2023-02-02T00:05:18;16.40;;;1.85;;
20411;SDS011;10365;52.578;8.138;2023-02-02T00:07:43;17.48;;;1.80;;
20411;SDS011;10365;52.578;8.138;2023-02-02T00:10:09;19.20;;;2.42;;
20411;SDS011;10365;52.578;8.138;2023-02-02T00:12:34;14.80;;;2.08;;
20411;SDS011;10365;52.578;8.138;2023-02-02T00:15:00;20.10;;;2.70;;
20411;SDS011;10365;52.578;8.138;2023-02-02T00:17:25;16.92;;;1.77;;
20411;SDS011;10365;52.578;8.138;2023-02-02T00:19:50;23.23;;;2.40;;
20411;SDS011;10365;52.578;8.138;2023-02-02T00:22:16;17.38;;;1.90;;
20411;SDS011;10365;52.578;8.138;2023-02-02T00:24:41;23.45;;;3.30;;
20411;SDS011;10365;52.578;8.138;2023-02-02T00:27:08;16.48;;;1.95;;
20411;SDS011;10365;52.578;8.138;2023-02-02T00:29:34;16.00;;;2.00;;
20411;SDS011;10365;52.578;8.138;2023-02-02T00:31:59;15.98;;;2.20;;
20411;SDS011;10365;52.578;8.138;2023-02-02T00:34:24;21.45;;;2.70;;
20411;SDS011;10365;52.578;8.138;2023-02-02T00:36:50;15.98;;;2.20;;
20411;SDS011;10365;52.578;8.138;2023-02-02T00:39:17;12.80;;;2.10;;
20411;SDS011;10365;52.578;8.138;2023-02-02T00:41:43;16.58;;;2.88;;
20411;SDS011;10365;52.578;8.138;2023-02-02T00:44:08;18.52;;;2.33;;
20411;SDS011;10365;52.578;8.138;2023-02-02T00:46:52;14.98;;;1.73;;
20411;SDS011;10365;52.578;8.138;2023-02-02T00:49:18;15.57;;;1.92;;
20411;SDS011;10365;52.578;8.138;2023-02-02T00:51:43;18.10;;;2.13;;
20411;SDS011;10365;52.578;8.138;2023-02-02T00:54:08;18.38;;;2.22;;
20411;SDS011;10365;52.578;8.138;2023-02-02T00:56:34;19.90;;;2.35;;
20411;SDS011;10365;52.578;8.138;2023-02-02T00:59:00;23.83;;;2.60;;
20411;SDS011;10365;52.578;8.138;2023-02-02T01:01:25;28.67;;;1.90;;
20411;SDS011;10365;52.578;8.138;2023-02-02T01:03:51;25.88;;;2.90;;
20411;SDS011;10365;52.578;8.138;2023-02-02T01:06:17;23.65;;;1.90;;
20411;SDS011;10365;52.578;8.138;2023-02-02T01:08:42;21.35;;;2.50;;
20411;SDS011;10365;52.578;8.138;2023-02-02T01:11:08;23.80;;;3.28;;
20411;SDS011;10365;52.578;8.138;2023-02-02T01:13:33;29.33;;;2.92;;
20411;SDS011;10365;52.578;8.138;2023-02-02T01:16:00;22.30;;;2.97;;
20411;SDS011;10365;52.578;8.138;2023-02-02T01:18:26;13.15;;;1.95;;
20411;SDS011;10365;52.578;8.138;2023-02-02T01:23:22;19.50;;;2.83;;
20411;SDS011;10365;52.578;8.138;2023-02-02T01:25:52;16.33;;;2.35;;
20411;SDS011;10365;52.578;8.138;2023-02-02T01:28:17;21.67;;;2.28;;
20411;SDS011;10365;52.578;8.138;2023-02-02T01:30:42;16.45;;;1.90;;
20411;SDS011;10365;52.578;8.138;2023-02-02T01:33:08;22.20;;;3.38;;
20411;SDS011;10365;52.578;8.138;2023-02-02T01:35:33;23.40;;;2.10;;
20411;SDS011;10365;52.578;8.138;2023-02-02T01:37:58;18.65;;;3.17;;
20411;SDS011;10365;52.578;8.138;2023-02-02T01:40:25;17.83;;;2.33;;
20411;SDS011;10365;52.578;8.138;2023-02-02T01:42:50;15.50;;;2.92;;
20411;SDS011;10365;52.578;8.138;2023-02-02T01:45:18;22.50;;;3.20;;
20411;SDS011;10365;52.578;8.138;2023-02-02T01:47:47;24.27;;;2.40;;
20411;SDS011;10365;52.578;8.138;2023-02-02T01:50:13;19.08;;;2.67;;
20411;SDS011;10365;52.578;8.138;2023-02-02T01:52:39;29.10;;;3.20;;
20411;SDS011;10365;52.578;8.138;2023-02-02T01:55:06;19.48;;;2.53;;
20411;SDS011;10365;52.578;8.138;2023-02-02T01:57:36;21.90;;;2.40;;
20411;SDS011;10365;52.578;8.138;2023-02-02T02:00:04;19.63;;;2.50;;
20411;SDS011;10365;52.578;8.138;2023-02-02T02:02:38;22.60;;;2.40;;
20411;SDS011;10365;52.578;8.138;2023-02-02T02:05:04;15.90;;;2.35;;
20411;SDS011;10365;52.578;8.138;2023-02-02T02:07:30;20.60;;;2.67;;
20411;SDS011;10365;52.578;8.138;2023-02-02T02:09:56;30.25;;;3.13;;
20411;SDS011;10365;52.578;8.138;2023-02-02T02:12:21;16.95;;;2.25;;
20411;SDS011;10365;52.578;8.138;2023-02-02T02:14:47;20.40;;;2.33;;
20411;SDS011;10365;52.578;8.138;2023-02-02T02:17:56;18.67;;;1.80;;
20411;SDS011;10365;52.578;8.138;2023-02-02T02:26:29;13.82;;;2.00;;
20411;SDS011;10365;52.578;8.138;2023-02-02T02:34:27;16.75;;;2.58;;
20411;SDS011;10365;52.578;8.138;2023-02-02T02:37:07;21.83;;;1.77;;
20411;SDS011;10365;52.578;8.138;2023-02-02T02:39:47;13.75;;;2.17;;
20411;SDS011;10365;52.578;8.138;2023-02-02T02:42:18;24.95;;;2.80;;
20411;SDS011;10365;52.578;8.138;2023-02-02T02:44:44;13.82;;;2.63;;
20411;SDS011;10365;52.578;8.138;2023-02-02T02:47:11;22.50;;;2.08;;
20411;SDS011;10365;52.578;8.138;2023-02-02T02:49:40;14.43;;;1.98;;
20411;SDS011;10365;52.578;8.138;2023-02-02T02:52:06;27.85;;;2.35;;
20411;SDS011;10365;52.578;8.138;2023-02-02T02:54:36;16.67;;;1.60;;
20411;SDS011;10365;52.578;8.138;2023-02-02T02:57:10;23.08;;;2.20;;
20411;SDS011;10365;52.578;8.138;2023-02-02T03:02:29;19.17;;;2.58;;
20411;SDS011;10365;52.578;8.138;2023-02-02T03:05:00;16.33;;;1.45;;
20411;SDS011;10365;52.578;8.138;2023-02-02T03:07:28;18.75;;;2.28;;
20411;SDS011;10365;52.578;8.138;2023-02-02T03:09:56;17.58;;;2.95;;
20411;SDS011;10365;52.578;8.138;2023-02-02T03:12:22;14.90;;;2.03;;
20411;SDS011;10365;52.578;8.138;2023-02-02T03:14:48;14.45;;;2.10;;
20411;SDS011;10365;52.578;8.138;2023-02-02T03:17:13;19.95;;;2.53;;
20411;SDS011;10365;52.578;8.138;2023-02-02T03:19:38;23.85;;;2.00;;
20411;SDS011;10365;52.578;8.138;2023-02-02T03:22:04;16.85;;;2.28;;
20411;SDS011;10365;52.578;8.138;2023-02-02T03:24:29;13.85;;;1.83;;
20411;SDS011;10365;52.578;8.138;2023-02-02T03:26:55;16.10;;;2.00;;
20411;SDS011;10365;52.578;8.138;2023-02-02T03:29:20;23.02;;;2.92;;
20411;SDS011;10365;52.578;8.138;2023-02-02T03:31:46;16.52;;;2.05;;
20411;SDS011;10365;52.578;8.138;2023-02-02T03:34:11;19.33;;;2.20;;
20411;SDS011;10365;52.578;8.138;2023-02-02T03:36:36;14.38;;;2.05;;
20411;SDS011;10365;52.578;8.138;2023-02-02T03:39:02;25.48;;;2.15;;
20411;SDS011;10365;52.578;8.138;2023-02-02T03:41:27;21.42;;;1.98;;
20411;SDS011;10365;52.578;8.138;2023-02-02T03:43:52;17.70;;;2.17;;
20411;SDS011;10365;52.578;8.138;2023-02-02T03:46:18;20.75;;;2.08;;
20411;SDS011;10365;52.578;8.138;2023-02-02T03:48:43;14.98;;;2.10;;
20411;SDS011;10365;52.578;8.138;2023-02-02T03:51:10;14.27;;;2.00;;
20411;SDS011;10365;52.578;8.138;2023-02-02T03:53:38;11.23;;;2.15;;
20411;SDS011;10365;52.578;8.138;2023-02-02T03:56:04;17.38;;;1.83;;
20411;SDS011;10365;52.578;8.138;2023-02-02T03:58:29;24.52;;;1.90;;
20411;SDS011;10365;52.578;8.138;2023-02-02T04:01:01;18.08;;;1.70;;
20411;SDS011;10365;52.578;8.138;2023-02-02T04:03:27;23.77;;;2.05;;
20411;SDS011;10365;52.578;8.138;2023-02-02T04:05:53;15.32;;;2.08;;
20411;SDS011;10365;52.578;8.138;2023-02-02T04:08:18;26.98;;;2.17;;
20411;SDS011;10365;52.578;8.138;2023-02-02T04:10:43;15.98;;;2.70;;
20411;SDS011;10365;52.578;8.138;2023-02-02T04:13:09;20.38;;;1.83;;
20411;SDS011;10365;52.578;8.138;2023-02-02T04:15:34;15.88;;;1.85;;
20411;SDS011;10365;52.578;8.138;2023-02-02T04:17:59;17.55;;;1.70;;
20411;SDS011;10365;52.578;8.138;2023-02-02T04:20:24;11.90;;;2.17;;
20411;SDS011;10365;52.578;8.138;2023-02-02T04:22:50;18.15;;;2.20;;
20411;SDS011;10365;52.578;8.138;2023-02-02T04:25:15;23.77;;;2.67;;
20411;SDS011;10365;52.578;8.138;2023-02-02T04:27:41;19.55;;;2.08;;
20411;SDS011;10365;52.578;8.138;2023-02-02T04:30:06;21.88;;;2.05;;
20411;SDS011;10365;52.578;8.138;2023-02-02T04:32:33;18.38;;;1.88;;
20411;SDS011;10365;52.578;8.138;2023-02-02T04:34:58;18.38;;;2.50;;
20411;SDS011;10365;52.578;8.138;2023-02-02T04:37:24;17.30;;;1.67;;
20411;SDS011;10365;52.578;8.138;2023-02-02T04:39:49;25.10;;;2.20;;
20411;SDS011;10365;52.578;8.138;2023-02-02T04:42:14;17.65;;;2.58;;
20411;SDS011;10365;52.578;8.138;2023-02-02T04:44:40;15.52;;;2.75;;
20411;SDS011;10365;52.578;8.138;2023-02-02T04:47:05;17.13;;;1.92;;
20411;SDS011;10365;52.578;8.138;2023-02-02T04:49:31;17.00;;;2.10;;
20411;SDS011;10365;52.578;8.138;2023-02-02T04:51:56;17.85;;;1.98;;
20411;SDS011;10365;52.578;8.138;2023-02-02T04:54:21;19.40;;;2.70;;
20411;SDS011;10365;52.578;8.138;2023-02-02T04:56:47;18.70;;;2.10;;
20411;SDS011;10365;52.578;8.138;2023-02-02T04:59:12;15.77;;;1.95;;
20411;SDS011;10365;52.578;8.138;2023-02-02T05:01:38;21.52;;;2.60;;
20411;SDS011;10365;52.578;8.138;2023-02-02T05:04:03;19.70;;;2.45;;
20411;SDS011;10365;52.578;8.138;2023-02-02T05:06:29;16.95;;;3.00;;
20411;SDS011;10365;52.578;8.138;2023-02-02T05:08:54;12.55;;;2.58;;
20411;SDS011;10365;52.578;8.138;2023-02-02T05:11:20;20.27;;;2.38;;
20411;SDS011;10365;52.578;8.138;2023-02-02T05:13:47;11.85;;;1.80;;
20411;SDS011;10365;52.578;8.138;2023-02-02T05:16:12;20.65;;;2.25;;
20411;SDS011;10365;52.578;8.138;2023-02-02T05:18:38;17.95;;;2.72;;
20411;SDS011;10365;52.578;8.138;2023-02-02T05:21:03;20.65;;;2.63;;
20411;SDS011;10365;52.578;8.138;2023-02-02T05:23:29;17.45;;;2.40;;
20411;SDS011;10365;52.578;8.138;2023-02-02T05:25:54;25.38;;;2.35;;
20411;SDS011;10365;52.578;8.138;2023-02-02T05:28:20;12.10;;;1.85;;
20411;SDS011;10365;52.578;8.138;2023-02-02T05:30:46;18.50;;;2.50;;
20411;SDS011;10365;52.578;8.138;2023-02-02T05:33:11;19.67;;;2.08;;
20411;SDS011;10365;52.578;8.138;2023-02-02T05:35:36;15.75;;;1.88;;
20411;SDS011;10365;52.578;8.138;2023-02-02T05:38:02;13.73;;;1.70;;
20411;SDS011;10365;52.578;8.138;2023-02-02T05:40:27;16.80;;;1.55;;
20411;SDS011;10365;52.578;8.138;2023-02-02T05:42:53;13.40;;;2.55;;
20411;SDS011;10365;52.578;8.138;2023-02-02T05:45:18;12.65;;;2.10;;
20411;SDS011;10365;52.578;8.138;2023-02-02T05:47:43;17.45;;;2.25;;
20411;SDS011;10365;52.578;8.138;2023-02-02T05:50:09;9.70;;;1.13;;
20411;SDS011;10365;52.578;8.138;2023-02-02T05:52:34;13.30;;;1.17;;
20411;SDS011;10365;52.578;8.138;2023-02-02T05:55:01;13.25;;;1.10;;
20411;SDS011;10365;52.578;8.138;2023-02-02T05:57:26;7.30;;;1.02;;
20411;SDS011;10365;52.578;8.138;2023-02-02T05:59:52;11.27;;;0.90;;
20411;SDS011;10365;52.578;8.138;2023-02-02T06:02:17;6.05;;;1.10;;
20411;SDS011;10365;52.578;8.138;2023-02-02T06:04:43;15.70;;;1.88;;
20411;SDS011;10365;52.578;8.138;2023-02-02T06:07:08;9.88;;;0.88;;
20411;SDS011;10365;52.578;8.138;2023-02-02T06:09:33;9.10;;;1.67;;
20411;SDS011;10365;52.578;8.138;2023-02-02T06:11:59;9.07;;;1.10;;
20411;SDS011;10365;52.578;8.138;2023-02-02T06:14:24;10.90;;;1.23;;
20411;SDS011;10365;52.578;8.138;2023-02-02T06:16:49;9.77;;;1.60;;
20411;SDS011;10365;52.578;8.138;2023-02-02T06:19:15;8.20;;;1.30;;
20411;SDS011;10365;52.578;8.138;2023-02-02T06:21:40;7.43;;;0.80;;
20411;SDS011;10365;52.578;8.138;2023-02-02T06:24:05;4.35;;;0.77;;
20411;SDS011;10365;52.578;8.138;2023-02-02T06:26:31;8.50;;;0.68;;
20411;SDS011;10365;52.578;8.138;2023-02-02T06:28:56;6.57;;;1.02;;
20411;SDS011;10365;52.578;8.138;2023-02-02T06:31:22;8.20;;;1.10;;
20411;SDS011;10365;52.578;8.138;2023-02-02T06:33:53;5.03;;;0.80;;
20411;SDS011;10365;52.578;8.138;2023-02-02T06:36:19;8.27;;;0.90;;
20411;SDS011;10365;52.578;8.138;2023-02-02T06:38:47;7.07;;;1.30;;
20411;SDS011;10365;52.578;8.138;2023-02-02T06:41:12;8.77;;;0.82;;
20411;SDS011;10365;52.578;8.138;2023-02-02T06:43:38;8.60;;;0.90;;
20411;SDS011;10365;52.578;8.138;2023-02-02T06:46:03;8.30;;;1.17;;
20411;SDS011;10365;52.578;8.138;2023-02-02T06:48:28;6.18;;;0.75;;
20411;SDS011;10365;52.578;8.138;2023-02-02T06:50:56;6.75;;;0.65;;
20411;SDS011;10365;52.578;8.138;2023-02-02T06:53:22;8.40;;;0.90;;
20411;SDS011;10365;52.578;8.138;2023-02-02T06:55:57;9.25;;;0.50;;
20411;SDS011;10365;52.578;8.138;2023-02-02T06:58:23;8.73;;;1.02;;
20411;SDS011;10365;52.578;8.138;2023-02-02T07:00:49;5.40;;;1.25;;
20411;SDS011;10365;52.578;8.138;2023-02-02T07:03:14;6.97;;;0.80;;
20411;SDS011;10365;52.578;8.138;2023-02-02T07:05:40;11.32;;;0.90;;
20411;SDS011;10365;52.578;8.138;2023-02-02T07:08:05;6.13;;;1.02;;
20411;SDS011;10365;52.578;8.138;2023-02-02T07:10:31;5.15;;;0.75;;
20411;SDS011;10365;52.578;8.138;2023-02-02T07:12:56;6.53;;;0.80;;
20411;SDS011;10365;52.578;8.138;2023-02-02T07:15:21;5.35;;;0.70;;
20411;SDS011;10365;52.578;8.138;2023-02-02T07:17:47;7.70;;;0.93;;
20411;SDS011;10365;52.578;8.138;2023-02-02T07:20:12;7.22;;;0.80;;
20411;SDS011;10365;52.578;8.138;2023-02-02T07:22:38;7.63;;;0.80;;
20411;SDS011;10365;52.578;8.138;2023-02-02T07:25:04;10.65;;;0.80;;
20411;SDS011;10365;52.578;8.138;2023-02-02T07:27:29;6.35;;;0.80;;
20411;SDS011;10365;52.578;8.138;2023-02-02T07:29:54;6.15;;;0.90;;
20411;SDS011;10365;52.578;8.138;2023-02-02T07:32:20;10.57;;;0.80;;
20411;SDS011;10365;52.578;8.138;2023-02-02T07:34:45;7.47;;;1.02;;
20411;SDS011;10365;52.578;8.138;2023-02-02T07:37:10;3.45;;;0.60;;
20411;SDS011;10365;52.578;8.138;2023-02-02T07:39:36;7.20;;;0.70;;
20411;SDS011;10365;52.578;8.138;2023-02-02T07:42:01;8.45;;;0.80;;
20411;SDS011;10365;52.578;8.138;2023-02-02T07:44:34;6.97;;;0.68;;
20411;SDS011;10365;52.578;8.138;2023-02-02T07:46:59;6.57;;;0.75;;
20411;SDS011;10365;52.578;8.138;2023-02-02T07:49:24;10.82;;;0.88;;
20411;SDS011;10365;52.578;8.138;2023-02-02T07:51:50;9.27;;;0.88;;
20411;SDS011;10365;52.578;8.138;2023-02-02T07:54:15;8.95;;;0.80;;
20411;SDS011;10365;52.578;8.138;2023-02-02T07:56:40;10.88;;;0.73;;
20411;SDS011;10365;52.578;8.138;2023-02-02T07:59:06;2.67;;;0.50;;
20411;SDS011;10365;52.578;8.138;2023-02-02T08:01:31;13.50;;;0.95;;
20411;SDS011;10365;52.578;8.138;2023-02-02T08:03:58;2.97;;;0.82;;
20411;SDS011;10365;52.578;8.138;2023-02-02T08:06:37;7.43;;;0.95;;
20411;SDS011;10365;52.578;8.138;2023-02-02T08:09:04;6.35;;;0.85;;
20411;SDS011;10365;52.578;8.138;2023-02-02T08:11:32;5.45;;;0.70;;
20411;SDS011;10365;52.578;8.138;2023-02-02T08:13:58;6.50;;;1.00;;
20411;SDS011;10365;52.578;8.138;2023-02-02T08:16:24;5.30;;;1.58;;
20411;SDS011;10365;52.578;8.138;2023-02-02T08:18:50;8.00;;;0.75;;
20411;SDS011;10365;52.578;8.138;2023-02-02T08:21:15;6.20;;;0.77;;
20411;SDS011;10365;52.578;8.138;2023-02-02T08:23:41;7.40;;;0.77;;
20411;SDS011;10365;52.578;8.138;2023-02-02T08:26:08;4.28;;;0.80;;
20411;SDS011;10365;52.578;8.138;2023-02-02T08:28:33;6.05;;;0.60;;
20411;SDS011;10365;52.578;8.138;2023-02-02T08:31:04;7.35;;;0.75;;
20411;SDS011;10365;52.578;8.138;2023-02-02T08:33:30;4.55;;;0.50;;
20411;SDS011;10365;52.578;8.138;2023-02-02T08:35:55;5.88;;;0.55;;
20411;SDS011;10365;52.578;8.138;2023-02-02T08:38:22;3.40;;;0.70;;
20411;SDS011;10365;52.578;8.138;2023-02-02T08:40:47;8.38;;;1.20;;
20411;SDS011;10365;52.578;8.138;2023-02-02T08:43:12;3.47;;;0.82;;
20411;SDS011;10365;52.578;8.138;2023-02-02T08:45:41;6.57;;;0.80;;
20411;SDS011;10365;52.578;8.138;2023-02-02T08:48:06;5.00;;;0.85;;
20411;SDS011;10365;52.578;8.138;2023-02-02T08:50:32;3.53;;;0.82;;
20411;SDS011;10365;52.578;8.138;2023-02-02T08:52:57;15.98;;;1.00;;
20411;SDS011;10365;52.578;8.138;2023-02-02T08:55:23;8.27;;;0.90;;
20411;SDS011;10365;52.578;8.138;2023-02-02T08:57:48;4.88;;;0.75;;
20411;SDS011;10365;52.578;8.138;2023-02-02T09:00:14;5.57;;;0.90;;
20411;SDS011;10365;52.578;8.138;2023-02-02T09:02:39;7.63;;;0.65;;
20411;SDS011;10365;52.578;8.138;2023-02-02T09:05:05;7.50;;;1.40;;
20411;SDS011;10365;52.578;8.138;2023-02-02T09:07:31;5.05;;;1.30;;
20411;SDS011;10365;52.578;8.138;2023-02-02T09:09:57;5.97;;;0.90;;
20411;SDS011;10365;52.578;8.138;2023-02-02T09:12:22;5.10;;;0.73;;
20411;SDS011;10365;52.578;8.138;2023-02-02T09:14:48;6.85;;;1.15;;
20411;SDS011;10365;52.578;8.138;2023-02-02T09:17:13;6.38;;;0.88;;
20411;SDS011;10365;52.578;8.138;2023-02-02T09:19:39;5.72;;;0.80;;
20411;SDS011;10365;52.578;8.138;2023-02-02T09:22:04;7.57;;;1.20;;
20411;SDS011;10365;52.578;8.138;2023-02-02T09:24:29;5.38;;;0.90;;
20411;SDS011;10365;52.578;8.138;2023-02-02T09:26:55;6.57;;;0.90;;
20411;SDS011;10365;52.578;8.138;2023-02-02T09:29:20;5.80;;;1.05;;
20411;SDS011;10365;52.578;8.138;2023-02-02T09:31:46;5.85;;;1.02;;
20411;SDS011;10365;52.578;8.138;2023-02-02T09:34:12;8.25;;;0.70;;
20411;SDS011;10365;52.578;8.138;2023-02-02T09:36:38;5.45;;;0.93;;
20411;SDS011;10365;52.578;8.138;2023-02-02T09:39:04;6.57;;;0.93;;
20411;SDS011;10365;52.578;8.138;2023-02-02T09:49:12;7.10;;;0.80;;
20411;SDS011;10365;52.578;8.138;2023-02-02T09:51:40;8.70;;;1.10;;
20411;SDS011;10365;52.578;8.138;2023-02-02T09:54:17;8.05;;;0.93;;
20411;SDS011;10365;52.578;8.138;2023-02-02T09:56:44;5.22;;;0.57;;
20411;SDS011;10365;52.578;8.138;2023-02-02T09:59:19;6.68;;;0.80;;
20411;SDS011;10365;52.578;8.138;2023-02-02T10:01:45;8.55;;;0.80;;
20411;SDS011;10365;52.578;8.138;2023-02-02T10:04:18;6.18;;;0.80;;
20411;SDS011;10365;52.578;8.138;2023-02-02T10:06:46;7.10;;;0.90;;
20411;SDS011;10365;52.578;8.138;2023-02-02T10:14:20;2.75;;;1.02;;
20411;SDS011;10365;52.578;8.138;2023-02-02T10:16:47;5.38;;;0.95;;
20411;SDS011;10365;52.578;8.138;2023-02-02T10:19:13;7.40;;;0.63;;
20411;SDS011;10365;52.578;8.138;2023-02-02T10:24:17;6.13;;;0.82;;
20411;SDS011;10365;52.578;8.138;2023-02-02T10:26:47;4.95;;;1.35;;
20411;SDS011;10365;52.578;8.138;2023-02-02T10:29:36;7.28;;;0.65;;
20411;SDS011;10365;52.578;8.138;2023-02-02T10:37:03;3.75;;;0.75;;
20411;SDS011;10365;52.578;8.138;2023-02-02T10:44:47;6.65;;;1.05;;
20411;SDS011;10365;52.578;8.138;2023-02-02T10:47:15;9.52;;;1.08;;
20411;SDS011;10365;52.578;8.138;2023-02-02T10:49:46;4.38;;;0.70;;
20411;SDS011;10365;52.578;8.138;2023-02-02T10:52:20;4.72;;;1.20;;
20411;SDS011;10365;52.578;8.138;2023-02-02T10:57:24;7.35;;;1.10;;
20411;SDS011;10365;52.578;8.138;2023-02-02T10:59:58;7.85;;;0.90;;
20411;SDS011;10365;52.578;8.138;2023-02-02T11:02:25;4.85;;;0.73;;
20411;SDS011;10365;52.578;8.138;2023-02-02T11:04:51;16.52;;;1.60;;
20411;SDS011;10365;52.578;8.138;2023-02-02T11:07:35;5.40;;;0.98;;
20411;SDS011;10365;52.578;8.138;2023-02-02T11:10:00;10.75;;;1.90;;
20411;SDS011;10365;52.578;8.138;2023-02-02T11:12:35;10.98;;;2.17;;
20411;SDS011;10365;52.578;8.138;2023-02-02T11:15:05;8.10;;;1.23;;
20411;SDS011;10365;52.578;8.138;2023-02-02T11:17:31;8.00;;;1.30;;
20411;SDS011;10365;52.578;8.138;2023-02-02T11:19:57;12.98;;;1.38;;
20411;SDS011;10365;52.578;8.138;2023-02-02T11:22:30;6.28;;;1.70;;
20411;SDS011;10365;52.578;8.138;2023-02-02T11:25:02;11.23;;;1.70;;
20411;SDS011;10365;52.578;8.138;2023-02-02T11:27:34;7.18;;;1.10;;
20411;SDS011;10365;52.578;8.138;2023-02-02T11:30:22;6.88;;;1.20;;
20411;SDS011;10365;52.578;8.138;2023-02-02T11:32:51;7.32;;;1.13;;
20411;SDS011;10365;52.578;8.138;2023-02-02T11:35:18;8.18;;;1.63;;
20411;SDS011;10365;52.578;8.138;2023-02-02T11:37:52;7.63;;;1.48;;
20411;SDS011;10365;52.578;8.138;2023-02-02T11:42:52;8.10;;;1.30;;
20411;SDS011;10365;52.578;8.138;2023-02-02T11:45:22;12.10;;;2.28;;
20411;SDS011;10365;52.578;8.138;2023-02-02T11:47:51;11.15;;;1.98;;
20411;SDS011;10365;52.578;8.138;2023-02-02T11:50:19;8.55;;;1.48;;
20411;SDS011;10365;52.578;8.138;2023-02-02T11:52:46;8.40;;;1.38;;
20411;SDS011;10365;52.578;8.138;2023-02-02T11:55:16;7.43;;;1.20;;
20411;SDS011;10365;52.578;8.138;2023-02-02T11:58:08;11.00;;;1.75;;
20411;SDS011;10365;52.578;8.138;2023-02-02T12:00:27;8.88;;;1.20;;
20411;SDS011;10365;52.578;8.138;2023-02-02T12:02:53;12.10;;;1.35;;
20411;SDS011;10365;52.578;8.138;2023-02-02T12:07:44;4.38;;;1.00;;
20411;SDS011;10365;52.578;8.138;2023-02-02T12:15:52;6.18;;;0.70;;
20411;SDS011;10365;52.578;8.138;2023-02-02T12:17:54;9.55;;;1.05;;
20411;SDS011;10365;52.578;8.138;2023-02-02T12:23:12;9.75;;;3.17;;
20411;SDS011;10365;52.578;8.138;2023-02-02T12:33:40;12.75;;;2.17;;
20411;SDS011;10365;52.578;8.138;2023-02-02T12:36:25;11.60;;;1.58;;
20411;SDS011;10365;52.578;8.138;2023-02-02T12:52:13;5.07;;;0.90;;
20411;SDS011;10365;52.578;8.138;2023-02-02T12:59:54;7.80;;;0.80;;
20411;SDS011;10365;52.578;8.138;2023-02-02T13:05:19;6.90;;;0.73;;
20411;SDS011;10365;52.578;8.138;2023-02-02T13:07:54;10.25;;;2.10;;
20411;SDS011;10365;52.578;8.138;2023-02-02T13:10:22;5.50;;;1.15;;
20411;SDS011;10365;52.578;8.138;2023-02-02T13:12:51;6.68;;;1.08;;
20411;SDS011;10365;52.578;8.138;2023-02-02T13:15:19;11.73;;;1.23;;
20411;SDS011;10365;52.578;8.138;2023-02-02T13:22:45;19.67;;;3.80;;
20411;SDS011;10365;52.578;8.138;2023-02-02T13:25:22;7.70;;;1.40;;
20411;SDS011;10365;52.578;8.138;2023-02-02T13:27:49;10.45;;;1.23;;
20411;SDS011;10365;52.578;8.138;2023-02-02T13:30:19;10.00;;;1.33;;
20411;SDS011;10365;52.578;8.138;2023-02-02T13:32:46;9.60;;;1.02;;
20411;SDS011;10365;52.578;8.138;2023-02-02T13:35:20;7.93;;;1.42;;
20411;SDS011;10365;52.578;8.138;2023-02-02T13:37:55;10.43;;;1.48;;
20411;SDS011;10365;52.578;8.138;2023-02-02T13:40:33;9.13;;;1.67;;
20411;SDS011;10365;52.578;8.138;2023-02-02T13:48:08;15.20;;;1.52;;
20411;SDS011;10365;52.578;8.138;2023-02-02T13:50:38;11.18;;;1.42;;
20411;SDS011;10365;52.578;8.138;2023-02-02T14:00:34;14.15;;;1.58;;
20411;SDS011;10365;52.578;8.138;2023-02-02T14:03:03;10.48;;;1.25;;
20411;SDS011;10365;52.578;8.138;2023-02-02T14:07:56;7.57;;;1.40;;
20411;SDS011;10365;52.578;8.138;2023-02-02T14:10:30;9.02;;;1.27;;
20411;SDS011;10365;52.578;8.138;2023-02-02T14:13:05;9.80;;;2.35;;
20411;SDS011;10365;52.578;8.138;2023-02-02T14:15:38;7.88;;;0.77;;
20411;SDS011;10365;52.578;8.138;2023-02-02T14:18:04;5.10;;;1.20;;
20411;SDS011;10365;52.578;8.138;2023-02-02T14:23:42;4.13;;;0.98;;
20411;SDS011;10365;52.578;8.138;2023-02-02T14:26:02;7.15;;;1.50;;
20411;SDS011;10365;52.578;8.138;2023-02-02T14:28:38;13.30;;;1.65;;
20411;SDS011;10365;52.578;8.138;2023-02-02T14:31:25;13.10;;;2.67;;
20411;SDS011;10365;52.578;8.138;2023-02-02T14:33:51;15.40;;;4.85;;
20411;SDS011;10365;52.578;8.138;2023-02-02T14:36:36;10.75;;;2.55;;
20411;SDS011;10365;52.578;8.138;2023-02-02T14:39:06;11.40;;;2.55;;
20411;SDS011;10365;52.578;8.138;2023-02-02T14:41:41;9.82;;;2.53;;
20411;SDS011;10365;52.578;8.138;2023-02-02T14:44:28;14.75;;;2.42;;
20411;SDS011;10365;52.578;8.138;2023-02-02T14:46:54;4.85;;;2.00;;
20411;SDS011;10365;52.578;8.138;2023-02-02T14:49:21;14.77;;;3.28;;
20411;SDS011;10365;52.578;8.138;2023-02-02T14:51:56;9.02;;;2.45;;
20411;SDS011;10365;52.578;8.138;2023-02-02T14:54:37;13.60;;;2.15;;
20411;SDS011;10365;52.578;8.138;2023-02-02T14:59:44;11.52;;;2.05;;
20411;SDS011;10365;52.578;8.138;2023-02-02T15:04:35;17.88;;;4.60;;
20411;SDS011;10365;52.578;8.138;2023-02-02T15:07:34;33.70;;;10.60;;
20411;SDS011;10365;52.578;8.138;2023-02-02T15:09:58;19.48;;;7.82;;
20411;SDS011;10365;52.578;8.138;2023-02-02T15:25:18;14.13;;;4.72;;
20411;SDS011;10365;52.578;8.138;2023-02-02T15:27:46;19.00;;;5.80;;
20411;SDS011;10365;52.578;8.138;2023-02-02T15:30:14;12.98;;;5.53;;
20411;SDS011;10365;52.578;8.138;2023-02-02T15:32:40;14.60;;;5.60;;
20411;SDS011;10365;52.578;8.138;2023-02-02T15:35:06;19.05;;;5.85;;
20411;SDS011;10365;52.578;8.138;2023-02-02T15:37:35;16.75;;;6.03;;
20411;SDS011;10365;52.578;8.138;2023-02-02T15:40:27;17.30;;;7.28;;
20411;SDS011;10365;52.578;8.138;2023-02-02T15:42:52;21.02;;;10.85;;
20411;SDS011;10365;52.578;8.138;2023-02-02T15:47:58;15.18;;;6.97;;
20411;SDS011;10365;52.578;8.138;2023-02-02T15:50:24;10.40;;;6.03;;
20411;SDS011;10365;52.578;8.138;2023-02-02T15:52:51;21.92;;;6.28;;
20411;SDS011;10365;52.578;8.138;2023-02-02T15:55:20;12.45;;;4.95;;
20411;SDS011;10365;52.578;8.138;2023-02-02T15:57:47;12.90;;;4.75;;
20411;SDS011;10365;52.578;8.138;2023-02-02T16:00:26;9.05;;;4.50;;
20411;SDS011;10365;52.578;8.138;2023-02-02T16:02:54;11.40;;;4.93;;
20411;SDS011;10365;52.578;8.138;2023-02-02T16:05:38;10.50;;;4.13;;
20411;SDS011;10365;52.578;8.138;2023-02-02T16:08:06;15.15;;;2.85;;
20411;SDS011;10365;52.578;8.138;2023-02-02T16:10:32;14.23;;;3.83;;
20411;SDS011;10365;52.578;8.138;2023-02-02T16:12:58;16.08;;;4.35;;
20411;SDS011;10365;52.578;8.138;2023-02-02T16:15:25;12.65;;;2.55;;
20411;SDS011;10365;52.578;8.138;2023-02-02T16:17:57;6.75;;;3.25;;
20411;SDS011;10365;52.578;8.138;2023-02-02T16:20:23;10.05;;;3.53;;
20411;SDS011;10365;52.578;8.138;2023-02-02T16:22:48;13.23;;;3.40;;
20411;SDS011;10365;52.578;8.138;2023-02-02T16:25:15;9.65;;;2.65;;
20411;SDS011;10365;52.578;8.138;2023-02-02T16:27:43;9.25;;;2.58;;
20411;SDS011;10365;52.578;8.138;2023-02-02T16:30:19;15.43;;;2.67;;
20411;SDS011;10365;52.578;8.138;2023-02-02T16:32:47;15.63;;;2.60;;
20411;SDS011;10365;52.578;8.138;2023-02-02T16:35:29;11.25;;;3.22;;
20411;SDS011;10365;52.578;8.138;2023-02-02T16:40:39;13.23;;;4.15;;
20411;SDS011;10365;52.578;8.138;2023-02-02T16:43:26;12.85;;;3.22;;
20411;SDS011;10365;52.578;8.138;2023-02-02T16:48:18;10.45;;;4.53;;
20411;SDS011;10365;52.578;8.138;2023-02-02T16:50:45;10.27;;;4.75;;
20411;SDS011;10365;52.578;8.138;2023-02-02T16:53:19;18.05;;;5.80;;
20411;SDS011;10365;52.578;8.138;2023-02-02T16:55:45;14.13;;;5.60;;
20411;SDS011;10365;52.578;8.138;2023-02-02T16:58:14;19.70;;;5.82;;
20411;SDS011;10365;52.578;8.138;2023-02-02T17:00:39;12.15;;;5.78;;